Flugplatz Suhl-Goldlauter

Für EDQS sind keine METAR/TAF Berichte vorhanden.
Es werden die Flugwettermeldungen vom Flugplatz Erfurt in 41 km Entfernung angezeigt.

Bericht für EDDE

vom 01.12. um 09:20 UTC

Wind 21 kt aus 210°

Sichtweite 10 km oder mehr

schwacher Regen

aufgebrochene Bewölkung in 1600 ft

Temperatur 6.0°C

Taupunkt 3.0°C

Luftfeuchtigkeit 81%

Luftdruck 994 hPa

EDDE 010920Z 21021KT 9999 -RA BKN016 06/03 Q0994 TEMPO 22020G35KT

Prognose für EDDE

vom 01.12. um 05:00 UTC

Zwischen 06:00 UTC und 06:00 UTC

Wind 15 kt aus 220° in Böen 30 kt

Sichtweite 10 km oder mehr

aufgebrochene Bewölkung in 2000 ft


Zwischen 06:00 und 08:00 UTC übergehend zu

Wind 20 kt aus 230° in Böen 35 kt

Sichtweite 10 km oder mehr

aufgebrochene Bewölkung in 2000 ft


Zwischen 09:00 UTC und 14:00 UTC zeitweise mit einer Wahrscheinlichkeit von 40%

Wind 25 kt aus 230° in Böen 45 kt


Zwischen 23:00 und 01:00 UTC übergehend zu

Wind 15 kt aus 260° in Böen 25 kt

Sichtweite 10 km oder mehr

aufgebrochene Bewölkung in 2000 ft


Am 02.12. zwischen 02:00 und 04:00 UTC übergehend zu

Wind 12 kt aus 260°

Sichtweite 10 km oder mehr

aufgebrochene Bewölkung in 2000 ft

TAF EDDE 010500Z 0106/0206 22015G30KT 9999 BKN020 BECMG 0106/0108 23020G35KT PROB40 TEMPO 0109/0114 23025G45KT BECMG 0123/0201 26015G25KT BECMG 0202/0204 26012KT
Impressum